createdAt,value
2023-03-19T00:00:36.779Z,6.67
2023-03-19T00:03:03.787Z,8.83
2023-03-19T00:05:30.672Z,10.40
2023-03-19T00:07:57.616Z,9.20
2023-03-19T00:10:24.450Z,7.10
2023-03-19T00:12:51.565Z,7.33
2023-03-19T00:15:18.513Z,6.23
2023-03-19T00:17:45.336Z,7.57
2023-03-19T00:20:14.853Z,7.43
2023-03-19T00:22:42.042Z,10.37
2023-03-19T00:25:10.084Z,5.27
2023-03-19T00:27:38.531Z,7.23
2023-03-19T00:30:07.343Z,6.93
2023-03-19T00:32:35.727Z,6.67
2023-03-19T00:35:03.808Z,7.53
2023-03-19T00:37:30.610Z,4.40
2023-03-19T00:39:57.385Z,5.97
2023-03-19T00:42:24.381Z,10.80
2023-03-19T00:44:51.212Z,8.67
2023-03-19T00:47:18.101Z,7.60
2023-03-19T00:49:44.914Z,7.10
2023-03-19T00:52:11.755Z,9.07
2023-03-19T00:54:40.046Z,6.53
2023-03-19T00:57:07.870Z,6.27
2023-03-19T00:59:34.665Z,5.37
2023-03-19T01:02:03.577Z,7.40
2023-03-19T01:04:30.731Z,5.53
2023-03-19T01:09:26.786Z,7.10
2023-03-19T01:11:53.646Z,8.33
2023-03-19T01:14:20.610Z,6.23
2023-03-19T01:16:47.415Z,9.03
2023-03-19T01:19:14.409Z,7.80
2023-03-19T01:21:43.007Z,7.40
2023-03-19T01:24:10.785Z,7.43
2023-03-19T01:26:38.588Z,5.63
2023-03-19T01:29:17.366Z,8.67
2023-03-19T01:31:44.516Z,6.60
2023-03-19T01:34:30.153Z,6.17
2023-03-19T01:37:05.305Z,8.03
2023-03-19T01:39:33.890Z,5.37
2023-03-19T01:42:04.481Z,8.37
2023-03-19T01:44:42.742Z,6.57
2023-03-19T01:47:34.433Z,7.27
2023-03-19T01:50:28.430Z,8.17
2023-03-19T01:53:14.318Z,6.87
2023-03-19T01:56:00.899Z,6.03
2023-03-19T01:58:40.127Z,6.40
2023-03-19T02:01:30.139Z,6.07
2023-03-19T02:03:59.714Z,8.13
2023-03-19T02:06:30.953Z,8.57
2023-03-19T02:08:59.236Z,8.00
2023-03-19T02:11:26.808Z,6.47
2023-03-19T02:13:54.041Z,4.57
2023-03-19T02:16:21.386Z,6.40
2023-03-19T02:18:49.317Z,7.27
2023-03-19T02:21:17.786Z,7.43
2023-03-19T02:24:07.901Z,5.33
2023-03-19T02:27:09.236Z,6.17
2023-03-19T02:29:38.390Z,7.63
2023-03-19T02:32:05.337Z,7.23
2023-03-19T02:34:38.925Z,5.27
2023-03-19T02:37:21.126Z,4.93
2023-03-19T02:40:11.680Z,8.67
2023-03-19T02:42:38.468Z,4.00
2023-03-19T02:45:05.944Z,5.17
2023-03-19T02:47:32.948Z,4.47
2023-03-19T02:49:59.803Z,7.10
2023-03-19T02:52:27.165Z,7.00
2023-03-19T02:54:54.001Z,6.97
2023-03-19T02:57:21.180Z,9.57
2023-03-19T02:59:48.156Z,6.17
2023-03-19T03:02:15.409Z,7.57
2023-03-19T03:04:42.284Z,6.43
2023-03-19T03:07:09.093Z,5.63
2023-03-19T03:09:36.278Z,5.10
2023-03-19T03:12:03.527Z,6.43
2023-03-19T03:14:30.430Z,6.90
2023-03-19T03:16:57.441Z,7.63
2023-03-19T03:19:24.631Z,8.53
2023-03-19T03:21:51.971Z,10.37
2023-03-19T03:24:19.152Z,12.03
2023-03-19T03:26:46.232Z,8.10
2023-03-19T03:29:15.412Z,12.57
2023-03-19T03:31:42.477Z,8.53
2023-03-19T03:34:09.340Z,7.63
2023-03-19T03:36:36.906Z,7.53
2023-03-19T03:39:04.194Z,8.13
2023-03-19T03:41:31.062Z,11.07
2023-03-19T03:43:57.813Z,9.33
2023-03-19T03:46:24.971Z,6.70
2023-03-19T03:48:52.287Z,5.60
2023-03-19T03:51:19.777Z,7.20
2023-03-19T03:53:46.939Z,8.53
2023-03-19T03:56:14.741Z,8.77
2023-03-19T03:58:41.712Z,7.43
2023-03-19T04:01:13.942Z,9.80
2023-03-19T04:03:41.443Z,8.73
2023-03-19T04:06:09.937Z,8.87
2023-03-19T04:08:36.786Z,7.17
2023-03-19T04:11:07.770Z,12.77
2023-03-19T04:13:36.864Z,10.67
2023-03-19T04:16:10.006Z,9.43
2023-03-19T04:18:37.717Z,9.93
2023-03-19T04:21:05.832Z,11.03
2023-03-19T04:23:33.195Z,11.77
2023-03-19T04:26:01.827Z,9.80
2023-03-19T04:28:31.529Z,10.63
2023-03-19T04:31:00.411Z,12.27
2023-03-19T04:33:27.465Z,7.23
2023-03-19T04:35:55.546Z,9.83
2023-03-19T04:38:23.115Z,10.57
2023-03-19T04:40:49.988Z,8.20
2023-03-19T04:43:17.451Z,8.80
2023-03-19T04:45:44.958Z,7.27
2023-03-19T04:48:12.731Z,7.70
2023-03-19T04:50:41.978Z,7.40
2023-03-19T04:53:09.285Z,10.03
2023-03-19T04:55:37.123Z,11.07
2023-03-19T04:58:09.234Z,7.60
2023-03-19T05:00:37.253Z,10.93
2023-03-19T05:03:05.009Z,6.80
2023-03-19T05:05:32.554Z,9.80
2023-03-19T05:08:01.961Z,12.03
2023-03-19T05:10:29.141Z,10.03
2023-03-19T05:12:56.698Z,9.77
2023-03-19T05:15:23.907Z,10.00
2023-03-19T05:17:58.856Z,7.80
2023-03-19T05:20:45.986Z,8.93
2023-03-19T05:23:18.825Z,5.50
2023-03-19T05:25:54.673Z,6.50
2023-03-19T05:28:40.106Z,8.57
2023-03-19T05:31:07.101Z,7.87
2023-03-19T05:33:40.810Z,6.23
2023-03-19T05:36:08.391Z,8.13
2023-03-19T05:38:46.872Z,10.63
2023-03-19T05:41:20.582Z,8.33
2023-03-19T05:43:56.496Z,7.47
2023-03-19T05:46:58.741Z,6.37
2023-03-19T05:49:29.799Z,7.83
2023-03-19T05:51:57.390Z,7.13
2023-03-19T05:54:24.664Z,8.57
2023-03-19T05:57:03.473Z,6.70
2023-03-19T05:59:51.194Z,8.03
2023-03-19T06:02:41.034Z,5.73
2023-03-19T06:05:40.484Z,6.80
2023-03-19T06:08:31.122Z,4.93
2023-03-19T06:11:24.256Z,3.53
2023-03-19T06:14:07.195Z,4.73
2023-03-19T06:16:38.600Z,4.20
2023-03-19T06:19:05.639Z,4.77
2023-03-19T06:21:32.668Z,4.40
2023-03-19T06:24:02.745Z,9.00
2023-03-19T06:26:34.194Z,6.70
2023-03-19T06:29:04.989Z,4.90
2023-03-19T06:31:31.947Z,5.30
2023-03-19T06:34:02.676Z,5.43
2023-03-19T06:36:38.422Z,2.73
2023-03-19T06:39:05.753Z,3.93
2023-03-19T06:41:32.564Z,3.23
2023-03-19T06:44:11.311Z,2.43
2023-03-19T06:46:38.187Z,2.40
2023-03-19T06:49:05.163Z,2.27
2023-03-19T06:51:31.923Z,3.63
2023-03-19T06:53:58.713Z,2.10
2023-03-19T06:56:26.049Z,5.63
2023-03-19T06:58:53.013Z,2.70
2023-03-19T07:01:20.244Z,5.80
2023-03-19T07:03:47.362Z,3.10
2023-03-19T07:06:14.196Z,3.10
2023-03-19T07:08:46.105Z,2.03
2023-03-19T07:11:14.125Z,2.80
2023-03-19T07:13:41.185Z,3.40
2023-03-19T07:16:08.806Z,4.73
2023-03-19T07:18:35.968Z,3.90
2023-03-19T07:21:03.009Z,3.83
2023-03-19T07:23:29.862Z,3.43
2023-03-19T07:25:56.893Z,6.87
2023-03-19T07:28:23.748Z,3.60
2023-03-19T07:30:54.023Z,4.03
2023-03-19T07:33:22.031Z,3.23
2023-03-19T07:35:48.972Z,2.07
2023-03-19T07:38:16.048Z,4.70
2023-03-19T07:40:51.318Z,4.37
2023-03-19T07:43:26.130Z,3.73
2023-03-19T07:45:53.219Z,4.93
2023-03-19T07:48:20.142Z,3.70
2023-03-19T07:50:47.020Z,3.47
2023-03-19T07:53:13.889Z,4.70
2023-03-19T07:55:40.760Z,3.30
2023-03-19T07:58:07.961Z,3.60
2023-03-19T08:00:35.180Z,2.87
2023-03-19T08:03:02.145Z,2.17
2023-03-19T08:05:28.959Z,4.40
2023-03-19T08:07:55.787Z,4.07
2023-03-19T08:10:23.008Z,2.67
2023-03-19T08:12:49.844Z,2.10
2023-03-19T08:15:16.709Z,2.70
2023-03-19T08:17:43.582Z,2.17
2023-03-19T08:20:12.989Z,2.57
2023-03-19T08:22:40.622Z,2.23
2023-03-19T08:25:08.133Z,2.50
2023-03-19T08:27:38.163Z,2.83
2023-03-19T08:30:07.660Z,2.40
2023-03-19T08:32:35.002Z,1.63
2023-03-19T08:35:02.326Z,2.10
2023-03-19T08:37:29.270Z,2.77
2023-03-19T08:39:56.102Z,3.60
2023-03-19T08:42:23.301Z,2.17
2023-03-19T08:44:50.545Z,3.07
2023-03-19T08:47:17.368Z,1.80
2023-03-19T08:49:44.235Z,2.43
2023-03-19T08:52:11.130Z,3.00
2023-03-19T08:54:38.036Z,2.47
2023-03-19T08:57:04.895Z,2.00
2023-03-19T08:59:34.065Z,2.27
2023-03-19T09:02:01.723Z,2.53
2023-03-19T09:04:29.405Z,2.97
2023-03-19T09:06:57.432Z,2.90
2023-03-19T09:09:24.917Z,2.30
2023-03-19T09:11:51.818Z,2.27
2023-03-19T09:14:20.642Z,3.60
2023-03-19T09:16:47.490Z,2.73
2023-03-19T09:19:14.994Z,2.13
2023-03-19T09:21:42.119Z,2.23
2023-03-19T09:24:09.067Z,1.60
2023-03-19T09:26:36.190Z,3.37
2023-03-19T09:29:03.683Z,2.27
2023-03-19T09:31:30.726Z,2.73
2023-03-19T09:33:57.595Z,1.60
2023-03-19T09:36:24.447Z,1.87
2023-03-19T09:38:51.830Z,1.73
2023-03-19T09:41:37.477Z,2.80
2023-03-19T09:44:15.796Z,2.77
2023-03-19T09:47:18.770Z,2.90
2023-03-19T09:49:50.881Z,2.07
2023-03-19T09:52:54.226Z,1.93
2023-03-19T09:55:23.680Z,3.40
2023-03-19T09:57:55.986Z,1.90
2023-03-19T10:00:27.194Z,3.67
2023-03-19T10:03:03.711Z,1.60
2023-03-19T10:06:08.675Z,3.47
2023-03-19T10:08:55.826Z,3.43
2023-03-19T10:11:52.702Z,2.97
2023-03-19T10:14:53.696Z,2.33
2023-03-19T10:17:30.442Z,3.90
2023-03-19T10:20:09.553Z,2.40
2023-03-19T10:22:46.187Z,3.33
2023-03-19T10:25:22.010Z,3.50
2023-03-19T10:27:56.846Z,3.13
2023-03-19T10:30:23.818Z,2.30
2023-03-19T10:33:28.019Z,3.37
2023-03-19T10:36:09.641Z,2.50
2023-03-19T10:38:41.527Z,2.83
2023-03-19T10:41:30.394Z,2.47
2023-03-19T10:44:02.206Z,3.03
2023-03-19T10:46:37.791Z,2.73
2023-03-19T10:49:04.702Z,3.23
2023-03-19T10:51:31.755Z,2.07
2023-03-19T10:54:01.270Z,2.57
2023-03-19T10:56:33.954Z,1.83
2023-03-19T10:59:01.921Z,2.90
2023-03-19T11:01:36.495Z,1.77
2023-03-19T11:04:22.038Z,2.23
2023-03-19T11:07:08.911Z,2.53
2023-03-19T11:09:49.003Z,2.33
2023-03-19T11:12:26.933Z,2.17
2023-03-19T11:14:57.247Z,2.07
2023-03-19T11:18:01.504Z,2.63
2023-03-19T11:20:34.761Z,2.53
2023-03-19T11:23:04.191Z,2.03
2023-03-19T11:25:37.883Z,3.10
2023-03-19T11:28:15.311Z,2.33
2023-03-19T11:31:19.436Z,3.43
2023-03-19T11:34:13.836Z,3.20
2023-03-19T11:37:19.096Z,2.43
2023-03-19T11:40:03.444Z,3.10
2023-03-19T11:42:54.884Z,2.63
2023-03-19T11:45:47.908Z,2.53
2023-03-19T11:48:38.893Z,2.60
2023-03-19T11:51:27.671Z,2.50
2023-03-19T11:53:57.227Z,3.00
2023-03-19T11:56:44.840Z,2.77
2023-03-19T11:59:51.777Z,3.67
2023-03-19T12:02:41.365Z,3.17
2023-03-19T12:05:26.728Z,3.87
2023-03-19T12:08:04.487Z,3.07
2023-03-19T12:11:09.675Z,3.37
2023-03-19T12:13:39.216Z,4.73
2023-03-19T12:16:19.679Z,3.00
2023-03-19T12:18:52.496Z,2.47
2023-03-19T12:21:58.812Z,2.87
2023-03-19T12:25:04.346Z,3.80
2023-03-19T12:27:49.805Z,3.13
2023-03-19T12:30:42.217Z,2.70
2023-03-19T12:33:21.801Z,3.20
2023-03-19T12:35:53.186Z,3.73
2023-03-19T12:38:48.284Z,2.73
2023-03-19T12:41:24.903Z,3.97
2023-03-19T12:44:11.734Z,2.97
2023-03-19T12:46:48.968Z,3.80
2023-03-19T12:49:25.780Z,4.90
2023-03-19T12:51:57.302Z,3.50
2023-03-19T12:54:31.611Z,3.37
2023-03-19T12:57:29.094Z,3.73
2023-03-19T13:00:06.734Z,2.60
2023-03-19T13:02:52.354Z,3.73
2023-03-19T13:05:30.772Z,2.80
2023-03-19T13:08:07.252Z,3.47
2023-03-19T13:10:34.371Z,3.80
2023-03-19T13:13:07.068Z,3.47
2023-03-19T13:15:42.174Z,5.27
2023-03-19T13:18:44.506Z,3.13
2023-03-19T13:21:29.910Z,3.30
2023-03-19T13:24:25.322Z,3.77
2023-03-19T13:26:54.025Z,4.17
2023-03-19T13:29:26.273Z,3.33
2023-03-19T13:32:00.138Z,5.30
2023-03-19T13:34:29.265Z,2.57
2023-03-19T13:37:08.067Z,3.27
2023-03-19T13:39:36.558Z,2.33
2023-03-19T13:42:06.482Z,3.00
2023-03-19T13:44:42.220Z,5.80
2023-03-19T13:47:28.822Z,3.20
2023-03-19T13:50:06.101Z,3.80
2023-03-19T13:52:32.932Z,3.90
2023-03-19T13:55:28.509Z,3.97
2023-03-19T13:58:16.674Z,2.60
2023-03-19T14:00:43.564Z,4.23
2023-03-19T14:03:21.853Z,4.47
2023-03-19T14:05:51.815Z,4.23
2023-03-19T14:08:28.832Z,4.27
2023-03-19T14:10:59.119Z,3.50
2023-03-19T14:13:37.955Z,6.40
2023-03-19T14:16:17.737Z,4.23
2023-03-19T14:18:44.989Z,2.90
2023-03-19T14:21:18.939Z,3.37
2023-03-19T14:23:57.720Z,3.73
2023-03-19T14:26:28.873Z,3.17
2023-03-19T14:29:07.310Z,3.93
2023-03-19T14:31:53.617Z,4.93
2023-03-19T14:34:32.202Z,4.13
2023-03-19T14:37:08.276Z,5.67
2023-03-19T14:39:41.933Z,6.80
2023-03-19T14:42:14.360Z,2.60
2023-03-19T14:44:44.280Z,3.00
2023-03-19T14:47:20.931Z,3.20
2023-03-19T14:49:50.606Z,4.17
2023-03-19T14:52:35.042Z,3.03
2023-03-19T14:55:03.624Z,3.00
2023-03-19T14:57:33.033Z,4.00
2023-03-19T15:00:00.694Z,3.53
2023-03-19T15:02:30.582Z,2.20
2023-03-19T15:05:00.550Z,2.73
2023-03-19T15:07:34.225Z,5.27
2023-03-19T15:10:06.432Z,3.27
2023-03-19T15:12:49.808Z,3.10
2023-03-19T15:15:31.702Z,2.70
2023-03-19T15:18:07.533Z,3.23
2023-03-19T15:20:47.268Z,3.13
2023-03-19T15:23:26.888Z,3.43
2023-03-19T15:25:57.739Z,3.23
2023-03-19T15:28:28.042Z,4.00
2023-03-19T15:31:05.768Z,3.47
2023-03-19T15:33:44.838Z,10.13
2023-03-19T15:36:18.539Z,6.80
2023-03-19T15:38:59.841Z,3.30
2023-03-19T15:41:29.850Z,3.63
2023-03-19T15:43:56.941Z,3.90
2023-03-19T15:46:31.426Z,4.97
2023-03-19T15:49:07.487Z,8.97
2023-03-19T15:51:34.803Z,10.83
2023-03-19T15:54:03.194Z,7.70
2023-03-19T15:56:32.297Z,6.40
2023-03-19T15:59:00.729Z,8.00
2023-03-19T16:01:28.414Z,6.50
2023-03-19T16:04:05.680Z,5.40
2023-03-19T16:06:39.683Z,4.70
2023-03-19T16:09:17.104Z,5.10
2023-03-19T16:11:45.660Z,9.20
2023-03-19T16:14:23.088Z,9.00
2023-03-19T16:16:50.633Z,6.33
2023-03-19T16:19:29.710Z,13.17
2023-03-19T16:21:56.908Z,10.80
2023-03-19T16:24:37.652Z,5.00
2023-03-19T16:27:07.797Z,9.00
2023-03-19T16:29:39.930Z,9.37
2023-03-19T16:32:20.343Z,5.03
2023-03-19T16:34:56.976Z,5.43
2023-03-19T16:37:40.437Z,11.27
2023-03-19T16:40:13.290Z,4.50
2023-03-19T16:42:44.029Z,4.93
2023-03-19T16:45:19.866Z,3.07
2023-03-19T16:47:51.995Z,8.57
2023-03-19T16:50:22.099Z,4.23
2023-03-19T16:52:49.791Z,5.83
2023-03-19T16:55:24.559Z,4.17
2023-03-19T16:58:01.192Z,4.70
2023-03-19T17:00:31.849Z,4.93
2023-03-19T17:02:59.498Z,6.07
2023-03-19T17:05:28.003Z,7.83
2023-03-19T17:07:55.789Z,12.93
2023-03-19T17:10:25.232Z,10.40
2023-03-19T17:12:54.114Z,6.87
2023-03-19T17:15:37.959Z,5.73
2023-03-19T17:18:30.435Z,5.93
2023-03-19T17:21:09.815Z,6.33
2023-03-19T17:23:38.052Z,4.60
2023-03-19T17:26:21.438Z,7.57
2023-03-19T17:28:48.700Z,4.13
2023-03-19T17:31:28.779Z,4.63
2023-03-19T17:34:12.116Z,8.50
2023-03-19T17:36:39.552Z,6.97
2023-03-19T17:39:07.646Z,4.27
2023-03-19T17:41:35.608Z,11.87
2023-03-19T17:44:05.835Z,7.77
2023-03-19T17:46:38.513Z,4.57
2023-03-19T17:49:05.471Z,5.20
2023-03-19T17:51:32.338Z,6.33
2023-03-19T17:53:59.414Z,6.37
2023-03-19T17:56:26.434Z,6.17
2023-03-19T17:58:53.749Z,5.37
2023-03-19T18:01:24.225Z,6.80
2023-03-19T18:03:53.367Z,7.60
2023-03-19T18:06:23.435Z,6.03
2023-03-19T18:08:50.931Z,6.63
2023-03-19T18:11:17.865Z,7.87
2023-03-19T18:13:44.693Z,9.30
2023-03-19T18:16:28.227Z,9.63
2023-03-19T18:18:57.804Z,7.87
2023-03-19T18:21:25.496Z,18.10
2023-03-19T18:23:52.876Z,6.83
2023-03-19T18:26:19.897Z,3.23
2023-03-19T18:28:46.736Z,4.83
2023-03-19T18:31:19.249Z,4.17
2023-03-19T18:33:50.714Z,3.77
2023-03-19T18:36:24.500Z,7.03
2023-03-19T18:38:52.339Z,7.40
2023-03-19T18:41:20.459Z,9.73
2023-03-19T18:44:03.871Z,5.57
2023-03-19T18:46:32.023Z,7.13
2023-03-19T18:49:05.310Z,5.77
2023-03-19T18:51:32.373Z,4.13
2023-03-19T18:53:59.588Z,9.17
2023-03-19T18:56:33.012Z,7.53
2023-03-19T18:59:00.837Z,8.70
2023-03-19T19:01:28.306Z,10.57
2023-03-19T19:03:55.470Z,6.43
2023-03-19T19:06:45.950Z,8.60
2023-03-19T19:09:14.032Z,10.27
2023-03-19T19:11:43.894Z,10.03
2023-03-19T19:14:20.679Z,8.17
2023-03-19T19:16:48.013Z,3.23
2023-03-19T19:19:17.681Z,5.07
2023-03-19T19:21:44.719Z,7.70
2023-03-19T19:24:14.821Z,8.40
2023-03-19T19:26:44.379Z,7.50
2023-03-19T19:29:19.025Z,4.53
2023-03-19T19:31:45.924Z,2.67
2023-03-19T19:34:15.601Z,8.63
2023-03-19T19:36:43.215Z,6.13
2023-03-19T19:39:10.527Z,6.20
2023-03-19T19:41:37.829Z,9.00
2023-03-19T19:44:05.073Z,3.30
2023-03-19T19:46:32.540Z,8.53
2023-03-19T19:48:59.634Z,6.93
2023-03-19T19:51:29.356Z,7.80
2023-03-19T19:53:56.341Z,6.07
2023-03-19T19:56:25.079Z,8.43
2023-03-19T19:58:54.184Z,4.87
2023-03-19T20:01:23.562Z,2.63
2023-03-19T20:03:51.981Z,4.13
2023-03-19T20:06:19.789Z,5.30
2023-03-19T20:08:49.265Z,8.33
2023-03-19T20:11:24.411Z,6.57
2023-03-19T20:13:54.492Z,7.53
2023-03-19T20:16:24.263Z,9.27
2023-03-19T20:18:53.740Z,8.30
2023-03-19T20:21:21.614Z,9.13
2023-03-19T20:23:52.828Z,9.00
2023-03-19T20:26:22.295Z,5.53
2023-03-19T20:28:50.699Z,6.33
2023-03-19T20:31:27.210Z,8.50
2023-03-19T20:33:54.013Z,4.67
2023-03-19T20:36:21.093Z,5.17
2023-03-19T20:38:47.949Z,4.23
2023-03-19T20:41:27.284Z,3.47
2023-03-19T20:43:55.611Z,6.20
2023-03-19T20:46:23.281Z,9.17
2023-03-19T20:48:50.681Z,2.93
2023-03-19T20:51:24.596Z,6.07
2023-03-19T20:53:52.877Z,4.77
2023-03-19T20:56:22.116Z,6.97
2023-03-19T20:58:49.406Z,8.23
2023-03-19T21:01:17.824Z,4.73
2023-03-19T21:03:44.819Z,7.20
2023-03-19T21:06:20.852Z,5.30
2023-03-19T21:08:57.011Z,8.00
2023-03-19T21:11:33.697Z,7.23
2023-03-19T21:14:01.536Z,5.13
2023-03-19T21:16:30.667Z,4.53
2023-03-19T21:18:57.600Z,4.67
2023-03-19T21:21:32.429Z,9.43
2023-03-19T21:24:06.718Z,6.17
2023-03-19T21:26:37.967Z,4.43
2023-03-19T21:29:08.556Z,7.90
2023-03-19T21:31:35.586Z,4.80
2023-03-19T21:34:02.624Z,9.37
2023-03-19T21:36:29.460Z,5.40
2023-03-19T21:38:56.438Z,8.33
2023-03-19T21:41:31.810Z,5.63
2023-03-19T21:44:02.932Z,8.80
2023-03-19T21:46:31.610Z,4.57
2023-03-19T21:48:59.158Z,5.13
2023-03-19T21:51:28.233Z,5.83
2023-03-19T21:53:55.380Z,6.10
2023-03-19T21:56:24.977Z,10.57
2023-03-19T21:58:53.046Z,4.57
2023-03-19T22:01:23.671Z,3.10
2023-03-19T22:03:55.454Z,6.90
2023-03-19T22:06:22.573Z,5.40
2023-03-19T22:08:50.940Z,6.33
2023-03-19T22:11:30.401Z,6.67
2023-03-19T22:14:05.809Z,5.53
2023-03-19T22:16:33.317Z,4.70
2023-03-19T22:19:01.410Z,4.43
2023-03-19T22:21:30.565Z,8.37
2023-03-19T22:23:57.418Z,6.33
2023-03-19T22:26:29.206Z,4.20
2023-03-19T22:28:58.424Z,5.53
2023-03-19T22:31:25.542Z,5.60
2023-03-19T22:33:52.679Z,7.00
2023-03-19T22:36:19.563Z,6.33
2023-03-19T22:38:48.744Z,3.73
2023-03-19T22:41:27.424Z,8.23
2023-03-19T22:43:55.114Z,3.37
2023-03-19T22:46:22.342Z,4.73
2023-03-19T22:48:52.605Z,5.63
2023-03-19T22:51:25.564Z,9.50
2023-03-19T22:53:52.904Z,9.20
2023-03-19T22:56:21.390Z,5.07
2023-03-19T22:58:48.715Z,7.57
2023-03-19T23:01:22.500Z,5.63
2023-03-19T23:03:50.912Z,9.20
2023-03-19T23:06:29.708Z,9.13
2023-03-19T23:08:57.782Z,4.23
2023-03-19T23:11:24.747Z,4.97
2023-03-19T23:13:51.904Z,5.23
2023-03-19T23:16:23.959Z,7.57
2023-03-19T23:18:51.543Z,7.47
2023-03-19T23:21:19.875Z,7.10
2023-03-19T23:23:46.825Z,8.83
2023-03-19T23:26:29.123Z,4.90
2023-03-19T23:29:06.534Z,4.77
2023-03-19T23:31:34.399Z,7.50
2023-03-19T23:34:01.606Z,5.30
2023-03-19T23:36:28.440Z,8.27
2023-03-19T23:38:56.468Z,3.17
2023-03-19T23:41:26.782Z,3.47
2023-03-19T23:43:54.921Z,4.13
2023-03-19T23:46:22.182Z,5.40
2023-03-19T23:48:49.051Z,4.50
2023-03-19T23:51:16.442Z,6.03
2023-03-19T23:53:44.096Z,5.63
2023-03-19T23:56:21.355Z,4.60
2023-03-19T23:58:50.581Z,7.67
